createdAt,value
2022-10-14T00:01:24.144Z,157965.69
2022-10-14T00:04:10.193Z,157998.94
2022-10-14T00:06:38.797Z,158017.56
2022-10-14T00:09:08.794Z,158012.22
2022-10-14T00:11:38.289Z,158022.84
2022-10-14T00:14:12.960Z,158030.88
2022-10-14T00:16:43.593Z,158033.50
2022-10-14T00:19:12.993Z,158050.78
2022-10-14T00:21:43.592Z,158052.16
2022-10-14T00:24:14.483Z,158062.75
2022-10-14T00:26:43.067Z,158066.78
2022-10-14T00:29:15.663Z,158068.09
2022-10-14T00:31:43.880Z,158078.69
2022-10-14T00:34:16.278Z,158066.78
2022-10-14T00:36:45.263Z,158074.75
2022-10-14T00:39:16.137Z,158073.41
2022-10-14T00:41:43.910Z,158089.38
2022-10-14T00:44:15.300Z,158093.31
2022-10-14T00:46:46.043Z,158084.03
2022-10-14T00:49:34.630Z,158077.38
2022-10-14T00:52:11.257Z,158061.44
2022-10-14T00:54:42.956Z,158062.75
2022-10-14T00:57:11.617Z,158046.81
2022-10-14T00:59:39.861Z,158041.47
2022-10-14T01:02:07.500Z,158037.47
2022-10-14T01:04:38.562Z,158041.47
2022-10-14T01:07:22.437Z,158024.22
2022-10-14T01:10:21.054Z,158013.56
2022-10-14T01:12:54.519Z,157996.28
2022-10-14T01:15:41.034Z,157997.59
2022-10-14T01:18:29.317Z,157984.31
2022-10-14T01:21:35.035Z,157982.97
2022-10-14T01:24:18.566Z,157989.63
2022-10-14T01:27:05.750Z,157993.59
2022-10-14T01:30:06.325Z,158001.56
2022-10-14T01:33:04.159Z,157978.97
2022-10-14T01:35:52.509Z,157982.97
2022-10-14T01:38:34.421Z,157996.28
2022-10-14T01:41:14.695Z,157982.97
2022-10-14T01:43:44.484Z,157990.97
2022-10-14T01:46:13.169Z,158017.56
2022-10-14T01:48:46.822Z,158034.81
2022-10-14T01:51:20.964Z,158046.81
2022-10-14T01:54:00.197Z,158054.78
2022-10-14T01:56:30.964Z,158093.31
2022-10-14T01:59:01.317Z,158098.66
2022-10-14T02:01:29.572Z,158114.59
2022-10-14T02:03:57.820Z,158137.25
2022-10-14T02:06:36.503Z,158147.94
2022-10-14T02:09:26.369Z,158175.88
2022-10-14T02:12:09.456Z,158185.22
2022-10-14T02:14:53.585Z,158194.50
2022-10-14T02:17:48.897Z,158223.78
2022-10-14T02:20:43.169Z,158227.78
2022-10-14T02:23:24.383Z,158233.06
2022-10-14T02:25:54.415Z,158230.44
2022-10-14T02:28:25.011Z,158214.47
2022-10-14T02:30:58.639Z,158247.69
2022-10-14T02:33:33.659Z,158246.38
2022-10-14T02:36:03.168Z,158259.69
2022-10-14T02:38:32.004Z,158255.72
2022-10-14T02:41:01.988Z,158238.41
2022-10-14T02:43:30.733Z,158250.41
2022-10-14T02:46:01.209Z,158254.34
2022-10-14T02:48:29.863Z,158234.44
2022-10-14T02:50:58.779Z,158171.91
2022-10-14T02:53:27.949Z,158255.72
2022-10-14T02:55:55.702Z,158251.72
2022-10-14T02:58:23.764Z,158226.41
2022-10-14T03:00:52.019Z,158246.38
2022-10-14T03:03:20.763Z,158235.75
2022-10-14T03:05:50.367Z,158237.09
2022-10-14T03:08:18.053Z,158241.03
2022-10-14T03:10:48.089Z,158239.72
2022-10-14T03:13:17.440Z,158239.72
2022-10-14T03:15:51.985Z,158210.47
2022-10-14T03:18:21.764Z,158234.44
2022-10-14T03:20:52.340Z,158230.44
2022-10-14T03:23:25.240Z,158221.13
2022-10-14T03:25:55.634Z,158249.06
2022-10-14T03:28:28.173Z,158249.06
2022-10-14T03:31:03.804Z,158267.66
2022-10-14T03:33:51.951Z,158273.00
2022-10-14T03:36:20.866Z,158287.63
2022-10-14T03:38:53.597Z,158283.69
2022-10-14T03:41:47.621Z,158292.97
2022-10-14T03:44:19.570Z,158308.94
2022-10-14T03:47:08.365Z,158311.63
2022-10-14T03:49:38.055Z,158307.59
2022-10-14T03:52:14.030Z,158327.59
2022-10-14T03:54:44.312Z,158311.63
2022-10-14T03:57:16.873Z,158310.25
2022-10-14T03:59:51.423Z,158304.97
2022-10-14T04:02:21.176Z,158322.25
2022-10-14T04:04:51.748Z,158314.25
2022-10-14T04:07:20.528Z,158328.91
2022-10-14T04:09:54.970Z,158324.88
2022-10-14T04:12:23.808Z,158303.59
2022-10-14T04:15:12.939Z,158308.94
2022-10-14T04:18:01.224Z,158298.31
2022-10-14T04:20:29.869Z,158315.59
2022-10-14T04:23:01.165Z,158324.88
2022-10-14T04:25:30.200Z,158269.00
2022-10-14T04:28:04.533Z,158275.66
2022-10-14T04:30:45.930Z,158286.31
2022-10-14T04:33:19.813Z,158283.69
2022-10-14T04:35:52.194Z,158304.97
2022-10-14T04:38:26.778Z,158299.63
2022-10-14T04:41:00.172Z,158249.06
2022-10-14T04:43:29.920Z,158266.34
2022-10-14T04:46:04.736Z,158255.72
2022-10-14T04:48:35.383Z,158262.38
2022-10-14T04:51:05.029Z,158262.38
2022-10-14T04:53:51.593Z,158265.03
2022-10-14T04:56:37.869Z,158257.06
2022-10-14T04:59:06.947Z,158255.72
2022-10-14T05:01:54.099Z,158267.66
2022-10-14T05:04:22.865Z,158286.31
2022-10-14T05:06:53.143Z,158279.66
2022-10-14T05:09:21.469Z,158271.69
2022-10-14T05:11:50.485Z,158275.66
2022-10-14T05:14:23.199Z,158261.00
2022-10-14T05:17:02.735Z,158269.00
2022-10-14T05:19:33.233Z,158259.69
2022-10-14T05:22:01.881Z,158298.31
2022-10-14T05:24:36.513Z,158288.97
2022-10-14T05:27:05.063Z,158308.94
2022-10-14T05:29:33.945Z,158300.94
2022-10-14T05:32:02.531Z,158319.59
2022-10-14T05:34:40.069Z,158342.22
2022-10-14T05:37:11.632Z,158334.25
2022-10-14T05:39:48.019Z,158351.50
2022-10-14T05:42:19.927Z,158378.16
2022-10-14T05:44:49.534Z,158391.47
2022-10-14T05:47:17.953Z,158419.44
2022-10-14T05:49:48.625Z,158434.06
2022-10-14T05:52:18.224Z,158431.41
2022-10-14T05:54:46.839Z,158427.41
2022-10-14T05:57:19.460Z,158454.03
2022-10-14T05:59:48.026Z,158467.38
2022-10-14T06:02:16.112Z,158470.00
2022-10-14T06:04:44.339Z,158460.69
2022-10-14T06:07:12.139Z,158478.00
2022-10-14T06:09:39.835Z,158488.66
2022-10-14T06:12:07.913Z,158524.63
2022-10-14T06:14:39.084Z,158539.25
2022-10-14T06:17:07.209Z,158537.94
2022-10-14T06:19:35.557Z,158556.53
2022-10-14T06:22:04.292Z,158560.56
2022-10-14T06:24:32.362Z,158580.56
2022-10-14T06:27:00.563Z,158623.16
2022-10-14T06:29:32.152Z,158667.13
2022-10-14T06:31:59.996Z,158683.09
2022-10-14T06:34:28.018Z,158697.75
2022-10-14T06:37:01.274Z,158695.09
2022-10-14T06:39:30.034Z,158719.06
2022-10-14T06:41:57.941Z,158725.72
2022-10-14T06:44:25.686Z,158724.41
2022-10-14T06:46:53.830Z,158735.06
2022-10-14T06:49:21.804Z,158735.06
2022-10-14T06:51:49.416Z,158725.72
2022-10-14T06:54:18.031Z,158755.06
2022-10-14T06:56:45.657Z,158757.72
2022-10-14T06:59:13.411Z,158769.72
2022-10-14T07:01:41.359Z,158767.03
2022-10-14T07:04:09.660Z,158772.38
2022-10-14T07:06:37.585Z,158799.09
2022-10-14T07:09:06.090Z,158825.75
2022-10-14T07:11:33.973Z,158828.41
2022-10-14T07:14:01.905Z,158864.38
2022-10-14T07:16:30.319Z,158873.69
2022-10-14T07:18:58.037Z,158864.38
2022-10-14T07:21:25.805Z,158845.69
2022-10-14T07:23:55.211Z,158868.41
2022-10-14T07:26:23.038Z,158877.72
2022-10-14T07:28:50.744Z,158887.03
2022-10-14T07:31:19.146Z,158891.06
2022-10-14T07:33:47.104Z,158917.72
2022-10-14T07:36:21.509Z,158923.00
2022-10-14T07:38:51.421Z,158948.38
2022-10-14T07:41:21.973Z,159001.72
2022-10-14T07:43:51.809Z,159061.69
2022-10-14T07:46:33.087Z,159152.41
2022-10-14T07:49:05.418Z,159199.13
2022-10-14T07:51:34.383Z,159247.16
2022-10-14T07:54:04.253Z,159284.56
2022-10-14T07:56:34.707Z,159315.22
2022-10-14T07:59:02.744Z,159303.19
2022-10-14T08:01:31.007Z,159307.22
2022-10-14T08:03:59.492Z,159312.56
2022-10-14T08:06:28.028Z,159373.97
2022-10-14T08:08:56.163Z,159403.34
2022-10-14T08:11:26.789Z,159435.34
2022-10-14T08:13:55.497Z,159470.06
2022-10-14T08:16:26.707Z,159540.81
2022-10-14T08:18:57.388Z,159559.53
2022-10-14T08:21:25.994Z,159576.88
2022-10-14T08:23:55.088Z,159612.91
2022-10-14T08:26:23.653Z,159654.34
2022-10-14T08:28:52.230Z,159695.78
2022-10-14T08:31:20.993Z,159694.47
2022-10-14T08:33:49.049Z,159689.13
2022-10-14T08:36:18.579Z,159691.81
2022-10-14T08:38:47.186Z,159705.13
2022-10-14T08:41:40.226Z,159705.13
2022-10-14T08:44:25.881Z,159677.06
2022-10-14T08:46:59.597Z,159616.94
2022-10-14T08:49:33.206Z,159611.59
2022-10-14T08:52:06.692Z,159619.59
2022-10-14T08:54:36.118Z,159630.31
2022-10-14T08:57:05.672Z,159637.00
2022-10-14T08:59:38.677Z,159658.34
2022-10-14T09:02:15.353Z,159683.72
2022-10-14T09:04:43.125Z,159715.84
2022-10-14T09:07:17.639Z,159737.22
2022-10-14T09:09:49.585Z,159746.56
2022-10-14T09:12:22.508Z,159753.22
2022-10-14T09:15:13.427Z,159776.00
2022-10-14T09:18:06.598Z,159801.34
2022-10-14T09:20:34.662Z,159813.38
2022-10-14T09:23:05.855Z,159841.44
2022-10-14T09:25:35.488Z,159849.47
2022-10-14T09:28:04.212Z,159857.47
2022-10-14T09:30:36.768Z,159881.56
2022-10-14T09:33:04.797Z,159896.25
2022-10-14T09:35:40.192Z,159865.47
2022-10-14T09:38:08.944Z,159889.56
2022-10-14T09:40:39.549Z,159906.91
2022-10-14T09:43:07.321Z,159929.63
2022-10-14T09:45:58.586Z,159972.41
2022-10-14T09:48:50.752Z,160015.16
2022-10-14T09:51:28.914Z,160029.94
2022-10-14T09:53:59.007Z,160031.25
2022-10-14T09:56:32.583Z,160063.38
2022-10-14T09:59:01.942Z,160110.19
2022-10-14T10:01:39.680Z,160106.16
2022-10-14T10:04:32.743Z,160135.56
2022-10-14T10:07:02.487Z,160154.31
2022-10-14T10:09:30.461Z,160186.41
2022-10-14T10:11:58.798Z,160234.59
2022-10-14T10:14:33.814Z,160280.03
2022-10-14T10:17:11.112Z,160322.84
2022-10-14T10:19:43.728Z,160322.84
2022-10-14T10:22:27.029Z,160388.44
2022-10-14T10:25:01.838Z,160459.38
2022-10-14T10:27:35.648Z,160486.16
2022-10-14T10:30:30.025Z,160557.09
2022-10-14T10:33:09.273Z,160597.28
2022-10-14T10:36:02.582Z,160630.75
2022-10-14T10:38:37.968Z,160535.69
2022-10-14T10:41:20.839Z,160554.44
2022-10-14T10:44:10.188Z,160534.34
2022-10-14T10:46:53.498Z,160539.72
2022-10-14T10:49:51.983Z,160567.84
2022-10-14T10:52:46.203Z,160593.25
2022-10-14T10:55:35.467Z,160602.66
2022-10-14T10:58:10.023Z,160609.34
2022-10-14T11:01:04.216Z,160618.69
2022-10-14T11:03:55.461Z,160624.06
2022-10-14T11:07:21.029Z,160610.69
2022-10-14T11:10:13.558Z,160547.75
2022-10-14T11:13:20.672Z,160565.13
2022-10-14T11:16:10.049Z,160511.59
2022-10-14T11:18:52.269Z,160601.28
2022-10-14T11:21:41.798Z,160625.41
2022-10-14T11:24:40.186Z,160638.78
2022-10-14T11:27:21.046Z,160662.88
2022-10-14T11:30:13.970Z,160713.81
2022-10-14T11:33:11.169Z,160660.22
2022-10-14T11:36:07.087Z,160670.91
2022-10-14T11:38:38.013Z,160696.41
2022-10-14T11:41:38.062Z,160737.94
2022-10-14T11:44:17.431Z,160729.91
2022-10-14T11:46:52.098Z,160744.63
2022-10-14T11:49:29.344Z,160729.91
2022-10-14T11:52:10.226Z,160703.13
2022-10-14T11:54:40.488Z,160674.94
2022-10-14T11:57:20.367Z,160628.06
2022-10-14T12:00:28.933Z,160614.66
2022-10-14T12:03:27.941Z,160593.25
2022-10-14T12:06:05.062Z,160582.56
2022-10-14T12:08:45.346Z,160587.94
2022-10-14T12:11:49.343Z,160598.59
2022-10-14T12:14:21.873Z,160526.31
2022-10-14T12:16:50.656Z,160541.06
2022-10-14T12:19:28.304Z,160563.78
2022-10-14T12:22:18.414Z,160561.13
2022-10-14T12:24:55.926Z,160582.56
2022-10-14T12:27:26.601Z,160555.78
2022-10-14T12:29:59.180Z,160582.56
2022-10-14T12:32:30.805Z,160529.00
2022-10-14T12:35:01.531Z,160558.44
2022-10-14T12:37:32.534Z,160571.81
2022-10-14T12:40:03.601Z,160606.63
2022-10-14T12:42:52.448Z,160630.75
2022-10-14T12:45:25.262Z,160640.13
2022-10-14T12:48:16.672Z,160672.22
2022-10-14T12:50:45.964Z,160693.75
2022-10-14T12:53:33.371Z,160711.13
2022-10-14T12:56:02.323Z,160736.59
2022-10-14T12:58:42.582Z,160727.19
2022-10-14T13:01:19.540Z,160700.41
2022-10-14T13:04:20.132Z,160677.59
2022-10-14T13:07:43.732Z,160684.28
2022-10-14T13:10:27.665Z,160658.88
2022-10-14T13:12:55.532Z,160673.59
2022-10-14T13:15:56.260Z,160637.47
2022-10-14T13:18:33.619Z,160612.00
2022-10-14T13:21:03.234Z,160620.03
2022-10-14T13:23:52.710Z,160640.13
2022-10-14T13:26:29.340Z,160641.44
2022-10-14T13:29:09.893Z,160652.19
2022-10-14T13:32:01.003Z,160656.19
2022-10-14T13:34:50.562Z,160661.53
2022-10-14T13:37:33.749Z,160674.94
2022-10-14T13:40:20.358Z,160666.91
2022-10-14T13:43:02.619Z,160696.41
2022-10-14T13:45:41.149Z,160703.13
2022-10-14T13:48:16.952Z,160695.09
2022-10-14T13:50:49.293Z,160657.50
2022-10-14T13:53:21.003Z,160649.47
2022-10-14T13:55:54.909Z,160645.50
2022-10-14T13:58:24.214Z,160661.53
2022-10-14T14:00:58.431Z,160637.47
2022-10-14T14:03:32.223Z,160642.78
2022-10-14T14:06:00.924Z,160638.78
2022-10-14T14:08:41.383Z,160620.03
2022-10-14T14:11:18.664Z,160603.97
2022-10-14T14:14:00.335Z,160579.84
2022-10-14T14:16:51.951Z,160533.03
2022-10-14T14:19:22.465Z,160512.94
2022-10-14T14:21:50.817Z,160516.94
2022-10-14T14:24:25.482Z,160480.78
2022-10-14T14:26:55.488Z,160480.78
2022-10-14T14:29:29.666Z,160478.13
2022-10-14T14:32:08.489Z,160466.06
2022-10-14T14:34:39.002Z,160454.06
2022-10-14T14:40:08.593Z,160433.97
2022-10-14T14:42:42.544Z,160416.56
2022-10-14T14:45:18.041Z,160392.50
2022-10-14T14:47:52.968Z,160385.78
2022-10-14T14:50:30.590Z,160387.13
2022-10-14T14:53:04.470Z,160367.00
2022-10-14T14:55:35.349Z,160353.59
2022-10-14T14:58:04.970Z,160348.28
2022-10-14T15:00:32.669Z,160341.59
2022-10-14T15:03:02.593Z,160326.88
2022-10-14T15:05:30.980Z,160325.50
2022-10-14T15:07:58.983Z,160336.25
2022-10-14T15:10:30.599Z,160312.19
2022-10-14T15:13:00.824Z,160309.47
2022-10-14T15:15:34.509Z,160302.78
2022-10-14T15:18:19.942Z,160293.44
2022-10-14T15:20:49.644Z,160290.72
2022-10-14T15:23:35.893Z,160258.63
2022-10-14T15:26:04.790Z,160249.28
2022-10-14T15:28:34.070Z,160246.59
2022-10-14T15:31:05.547Z,160231.88
2022-10-14T15:33:36.466Z,160226.50
2022-10-14T15:36:04.929Z,160245.25
2022-10-14T15:38:33.466Z,160213.13
2022-10-14T15:41:04.084Z,160226.50
2022-10-14T15:43:33.956Z,160214.50
2022-10-14T15:46:20.356Z,160206.50
2022-10-14T15:48:53.194Z,160213.13
2022-10-14T15:51:26.169Z,160195.75
2022-10-14T15:53:54.464Z,160189.06
2022-10-14T15:56:22.782Z,160187.75
2022-10-14T15:58:50.818Z,160157.00
2022-10-14T16:01:23.119Z,160169.00
2022-10-14T16:03:55.659Z,160179.72
2022-10-14T16:06:24.601Z,160178.41
2022-10-14T16:08:53.056Z,160151.66
2022-10-14T16:11:23.943Z,160161.00
2022-10-14T16:13:52.279Z,160150.31
2022-10-14T16:16:31.925Z,160159.66
2022-10-14T16:19:02.562Z,160135.56
2022-10-14T16:21:31.353Z,160157.00
2022-10-14T16:23:59.826Z,160150.31
2022-10-14T16:26:27.618Z,160134.22
2022-10-14T16:28:56.243Z,160132.91
2022-10-14T16:31:24.136Z,160092.78
2022-10-14T16:33:55.475Z,160128.91
2022-10-14T16:36:25.214Z,160110.19
2022-10-14T16:38:55.951Z,160107.53
2022-10-14T16:41:28.391Z,160116.88
2022-10-14T16:43:56.079Z,160119.53
2022-10-14T16:46:46.281Z,160088.78
2022-10-14T16:49:14.473Z,160110.19
2022-10-14T16:51:43.146Z,160087.47
2022-10-14T16:54:11.709Z,160094.16
2022-10-14T16:56:52.982Z,160102.16
2022-10-14T16:59:22.649Z,160103.50
2022-10-14T17:01:51.633Z,160083.44
2022-10-14T17:04:22.856Z,160071.38
2022-10-14T17:06:59.270Z,160074.09
2022-10-14T17:09:26.498Z,160074.09
2022-10-14T17:11:55.315Z,160078.06
2022-10-14T17:14:24.492Z,160060.72
2022-10-14T17:16:52.855Z,160059.38
2022-10-14T17:19:20.757Z,160059.38
2022-10-14T17:21:49.371Z,160054.03
2022-10-14T17:24:17.240Z,160036.56
2022-10-14T17:26:45.966Z,160031.25
2022-10-14T17:29:14.340Z,160020.53
2022-10-14T17:31:42.158Z,160020.53
2022-10-14T17:34:10.890Z,160016.56
2022-10-14T17:36:40.321Z,160008.53
2022-10-14T17:39:16.433Z,160012.53
2022-10-14T17:41:49.484Z,160007.16
2022-10-14T17:44:17.280Z,159991.13
2022-10-14T17:46:45.820Z,160000.47
2022-10-14T17:49:16.382Z,159991.13
2022-10-14T17:51:45.292Z,159975.09
2022-10-14T17:54:13.652Z,159980.47
2022-10-14T17:56:43.348Z,159980.47
2022-10-14T17:59:14.081Z,159963.06
2022-10-14T18:02:02.718Z,159957.69
2022-10-14T18:04:30.951Z,159953.72
2022-10-14T18:06:59.515Z,159916.25
2022-10-14T18:09:28.131Z,159933.66
2022-10-14T18:12:08.220Z,159931.00
2022-10-14T18:14:41.446Z,159913.59
2022-10-14T18:17:12.611Z,159910.94
2022-10-14T18:19:41.742Z,159918.97
2022-10-14T18:22:11.578Z,159897.56
2022-10-14T18:24:39.843Z,159902.94
2022-10-14T18:27:08.664Z,159897.56
2022-10-14T18:29:36.674Z,159873.50
2022-10-14T18:32:05.968Z,159884.19
2022-10-14T18:34:34.609Z,159874.88
2022-10-14T18:37:02.586Z,159869.50
2022-10-14T18:39:30.775Z,159852.13
2022-10-14T18:41:58.876Z,159842.78
2022-10-14T18:44:27.198Z,159841.44
2022-10-14T18:46:55.325Z,159833.44
2022-10-14T18:49:23.849Z,159844.09
2022-10-14T18:51:53.472Z,159805.38
2022-10-14T18:54:23.958Z,159821.41
2022-10-14T18:56:52.515Z,159826.75
2022-10-14T18:59:23.233Z,159814.72
2022-10-14T19:01:53.683Z,159805.38
2022-10-14T19:04:25.361Z,159785.31
2022-10-14T19:06:54.281Z,159796.00
2022-10-14T19:09:28.968Z,159784.00
2022-10-14T19:11:59.330Z,159774.59
2022-10-14T19:14:28.979Z,159770.63
2022-10-14T19:16:56.779Z,159745.22
2022-10-14T19:19:25.141Z,159731.84
2022-10-14T19:21:56.320Z,159731.84
2022-10-14T19:24:24.105Z,159699.81
2022-10-14T19:26:54.647Z,159706.50
2022-10-14T19:29:23.349Z,159675.69
2022-10-14T19:31:51.901Z,159683.72
2022-10-14T19:34:20.592Z,159662.34
2022-10-14T19:36:48.494Z,159657.03
2022-10-14T19:39:17.142Z,159649.03
2022-10-14T19:41:47.644Z,159607.63
2022-10-14T19:44:16.925Z,159623.63
2022-10-14T19:46:45.814Z,159608.94
2022-10-14T19:49:14.693Z,159614.28
2022-10-14T19:51:45.020Z,159606.25
2022-10-14T19:54:13.809Z,159594.25
2022-10-14T19:56:42.278Z,159591.56
2022-10-14T19:59:11.072Z,159586.25
2022-10-14T20:01:39.734Z,159566.22
2022-10-14T20:04:08.115Z,159559.53
2022-10-14T20:06:38.674Z,159554.19
2022-10-14T20:09:07.400Z,159556.81
2022-10-14T20:11:38.043Z,159539.50
2022-10-14T20:14:05.731Z,159531.50
2022-10-14T20:16:34.325Z,159551.53
2022-10-14T20:19:03.568Z,159550.19
2022-10-14T20:21:31.796Z,159540.81
2022-10-14T20:24:00.484Z,159526.13
2022-10-14T20:26:28.966Z,159530.16
2022-10-14T20:28:57.001Z,159514.09
2022-10-14T20:31:25.646Z,159511.44
2022-10-14T20:33:56.810Z,159515.47
2022-10-14T20:36:24.831Z,159504.78
2022-10-14T20:38:53.259Z,159504.78
2022-10-14T20:41:23.824Z,159496.78
2022-10-14T20:43:52.407Z,159494.13
2022-10-14T20:46:21.994Z,159459.41
2022-10-14T20:48:54.485Z,159460.72
2022-10-14T20:51:24.519Z,159446.03
2022-10-14T20:54:02.642Z,159434.03
2022-10-14T20:56:34.087Z,159438.03
2022-10-14T20:59:07.686Z,159410.00
2022-10-14T21:01:37.315Z,159399.31
2022-10-14T21:04:07.806Z,159384.63
2022-10-14T21:06:38.816Z,159349.94
2022-10-14T21:09:07.443Z,159345.94
2022-10-14T21:11:35.809Z,159308.53
2022-10-14T21:14:04.384Z,159297.91
2022-10-14T21:16:33.976Z,159319.25
2022-10-14T21:19:04.917Z,159280.53
2022-10-14T21:21:41.643Z,159252.44
2022-10-14T21:24:12.888Z,159240.47
2022-10-14T21:26:41.357Z,159220.47
2022-10-14T21:29:08.946Z,159211.09
2022-10-14T21:31:37.470Z,159207.09
2022-10-14T21:34:06.779Z,159197.78
2022-10-14T21:36:35.924Z,159203.09
2022-10-14T21:39:08.681Z,159204.41
2022-10-14T21:41:37.345Z,159221.78
2022-10-14T21:44:06.655Z,159211.09
2022-10-14T21:46:35.182Z,159219.13
2022-10-14T21:49:03.860Z,159221.78
2022-10-14T21:51:31.793Z,159233.81
2022-10-14T21:53:59.584Z,159227.13
2022-10-14T21:56:28.009Z,159205.78
2022-10-14T21:58:55.793Z,159208.44
2022-10-14T22:01:29.538Z,159221.78
2022-10-14T22:04:05.709Z,159217.75
2022-10-14T22:06:35.291Z,159183.06
2022-10-14T22:09:06.212Z,159197.78
2022-10-14T22:11:37.239Z,159193.75
2022-10-14T22:14:08.075Z,159185.75
2022-10-14T22:16:35.861Z,159185.75
2022-10-14T22:19:05.329Z,159179.09
2022-10-14T22:21:35.041Z,159168.41
2022-10-14T22:24:03.800Z,159165.75
2022-10-14T22:26:33.128Z,159157.75
2022-10-14T22:29:27.484Z,159149.75
2022-10-14T22:31:55.363Z,159116.41
2022-10-14T22:34:23.910Z,159120.41
2022-10-14T22:36:52.122Z,159107.06
2022-10-14T22:39:19.877Z,159093.72
2022-10-14T22:41:47.889Z,159077.69
2022-10-14T22:44:15.967Z,159041.69
2022-10-14T22:46:43.982Z,159047.03
2022-10-14T22:49:12.261Z,159040.38
2022-10-14T22:51:41.132Z,159024.38
2022-10-14T22:54:10.013Z,159013.69
2022-10-14T22:56:38.781Z,158987.06
2022-10-14T22:59:09.630Z,158987.06
2022-10-14T23:01:38.803Z,158979.00
2022-10-14T23:04:07.503Z,158968.38
2022-10-14T23:06:35.802Z,158947.03
2022-10-14T23:09:03.779Z,158935.03
2022-10-14T23:11:32.518Z,158923.00
2022-10-14T23:14:02.932Z,158903.06
2022-10-14T23:16:35.772Z,158860.41
2022-10-14T23:19:04.270Z,158824.38
2022-10-14T23:21:34.713Z,158795.06
2022-10-14T23:24:05.770Z,158767.03
2022-10-14T23:26:35.199Z,158740.41
2022-10-14T23:29:06.719Z,158701.75
2022-10-14T23:31:36.308Z,158669.75
2022-10-14T23:34:06.640Z,158663.16
2022-10-14T23:36:34.457Z,158664.47
2022-10-14T23:39:04.160Z,158636.50
2022-10-14T23:41:32.091Z,158627.13
2022-10-14T23:44:00.295Z,158600.53
2022-10-14T23:46:28.389Z,158584.50
2022-10-14T23:49:07.046Z,158571.19
2022-10-14T23:51:42.925Z,158532.59
2022-10-14T23:54:10.924Z,158519.28
2022-10-14T23:56:39.213Z,158523.28
2022-10-14T23:59:07.100Z,158596.50
